createdAt,value
2023-04-23T00:11:01.785Z,9.29
2023-04-23T00:26:04.902Z,9.11
2023-04-23T00:41:08.014Z,8.94
2023-04-23T00:56:10.886Z,8.82
2023-04-23T01:11:14.930Z,8.70
2023-04-23T01:26:19.094Z,8.61
2023-04-23T01:41:21.971Z,8.40
2023-04-23T01:56:25.922Z,8.11
2023-04-23T02:11:28.803Z,8.07
2023-04-23T02:26:31.401Z,7.98
2023-04-23T02:41:34.025Z,7.92
2023-04-23T02:56:36.714Z,7.74
2023-04-23T03:11:39.520Z,7.64
2023-04-23T03:26:42.371Z,7.55
2023-04-23T03:41:45.020Z,7.38
2023-04-23T03:56:47.591Z,7.27
2023-04-23T04:11:51.764Z,7.35
2023-04-23T04:26:56.086Z,8.29
2023-04-23T04:41:59.963Z,10.23
2023-04-23T04:57:02.765Z,12.32
2023-04-23T05:12:07.441Z,13.91
2023-04-23T05:27:10.251Z,15.63
2023-04-23T05:42:13.274Z,17.28
2023-04-23T05:57:16.050Z,17.36
2023-04-23T06:12:18.796Z,17.73
2023-04-23T06:27:21.584Z,18.64
2023-04-23T06:42:24.328Z,20.09
2023-04-23T06:57:28.442Z,21.61
2023-04-23T07:12:31.295Z,23.38
2023-04-23T07:27:34.614Z,24.98
2023-04-23T07:42:37.378Z,24.24
2023-04-23T07:57:40.172Z,25.20
2023-04-23T08:12:42.995Z,26.40
2023-04-23T08:27:45.856Z,26.33
2023-04-23T08:42:58.851Z,25.56
2023-04-23T08:58:03.102Z,25.94
2023-04-23T09:13:06.112Z,26.82
2023-04-23T09:28:10.946Z,26.77
2023-04-23T09:43:13.790Z,25.99
2023-04-23T09:58:16.673Z,25.78
2023-04-23T10:13:21.292Z,26.89
2023-04-23T10:28:29.242Z,25.93
2023-04-23T10:43:32.359Z,24.91
2023-04-23T10:58:51.944Z,24.49
2023-04-23T11:13:54.860Z,23.76
2023-04-23T11:28:58.372Z,23.58
2023-04-23T11:44:01.159Z,23.63
2023-04-23T11:59:05.810Z,24.24
2023-04-23T12:14:10.258Z,24.73
2023-04-23T12:29:14.008Z,24.76
2023-04-23T12:44:16.780Z,24.12
2023-04-23T12:59:19.820Z,23.52
2023-04-23T13:14:23.020Z,23.16
2023-04-23T13:29:27.302Z,23.13
2023-04-23T13:44:33.082Z,22.92
2023-04-23T13:59:35.760Z,22.34
2023-04-23T14:14:38.800Z,21.83
2023-04-23T14:29:50.628Z,21.89
2023-04-23T14:44:56.828Z,21.94
2023-04-23T14:59:59.866Z,21.61
2023-04-23T15:15:04.656Z,21.18
2023-04-23T15:30:07.983Z,20.68
2023-04-23T15:45:11.942Z,19.64
2023-04-23T16:00:16.694Z,19.26
2023-04-23T16:15:19.418Z,18.86
2023-04-23T16:30:22.061Z,17.79
2023-04-23T16:45:25.105Z,17.22
2023-04-23T17:00:28.030Z,17.10
2023-04-23T17:15:30.950Z,16.97
2023-04-23T17:30:33.794Z,16.79
2023-04-23T17:45:36.360Z,16.54
2023-04-23T18:00:44.140Z,16.19
2023-04-23T18:15:49.918Z,15.91
2023-04-23T18:30:54.243Z,15.77
2023-04-23T18:45:57.329Z,15.59
2023-04-23T19:01:00.216Z,15.46
2023-04-23T19:16:03.405Z,15.27
2023-04-23T19:31:06.299Z,15.06
2023-04-23T19:46:09.334Z,14.86
2023-04-23T20:01:13.119Z,14.67
2023-04-23T20:16:16.503Z,14.45
2023-04-23T20:31:21.323Z,14.25
2023-04-23T20:46:25.771Z,14.20
2023-04-23T21:01:28.839Z,14.05
2023-04-23T21:16:31.671Z,13.91
2023-04-23T21:31:48.427Z,13.73
2023-04-23T21:46:51.446Z,13.57
2023-04-23T22:01:54.178Z,13.48
2023-04-23T22:16:58.774Z,13.49
2023-04-23T22:32:01.800Z,13.29
2023-04-23T22:47:08.219Z,13.16
2023-04-23T23:02:10.930Z,13.00
2023-04-23T23:17:13.696Z,12.77
2023-04-23T23:32:16.471Z,12.59
2023-04-23T23:47:19.171Z,12.43
